createdAt,value
2017-12-17T05:00:54.802Z,0
2017-12-17T05:01:20.296Z,0
2017-12-17T05:01:45.774Z,0
2017-12-17T05:02:11.258Z,0
2017-12-17T05:02:36.730Z,0
2017-12-17T05:03:02.204Z,0
2017-12-17T05:03:27.709Z,0
2017-12-17T05:03:53.191Z,0
2017-12-17T05:04:18.686Z,0
2017-12-17T05:04:44.182Z,0
2017-12-17T05:05:09.673Z,0
2017-12-17T05:05:35.145Z,0
2017-12-17T05:06:00.627Z,0
2017-12-17T05:06:26.151Z,0
2017-12-17T05:06:51.661Z,0
2017-12-17T05:07:17.179Z,0
2017-12-17T05:07:42.672Z,0
2017-12-17T05:08:08.220Z,0
2017-12-17T05:08:33.726Z,0
2017-12-17T05:08:59.179Z,0
2017-12-17T05:10:07.917Z,0
2017-12-17T05:10:33.392Z,0
2017-12-17T05:10:58.875Z,0
2017-12-17T05:11:24.393Z,0
2017-12-17T05:11:49.877Z,0
2017-12-17T05:12:15.371Z,0
2017-12-17T05:12:40.840Z,0
2017-12-17T05:13:06.358Z,0
2017-12-17T05:13:31.850Z,0
2017-12-17T05:13:57.376Z,0
2017-12-17T05:14:22.856Z,0
2017-12-17T05:17:19.927Z,0
2017-12-17T05:17:45.415Z,0
2017-12-17T05:18:10.918Z,0
2017-12-17T05:18:36.409Z,0
2017-12-17T05:19:01.922Z,0
2017-12-17T05:19:27.418Z,0
2017-12-17T05:19:52.934Z,0
2017-12-17T05:20:18.422Z,0
2017-12-17T05:20:43.902Z,0
2017-12-17T05:21:09.411Z,0
2017-12-17T05:21:34.898Z,0
2017-12-17T05:22:00.394Z,0
2017-12-17T05:22:25.891Z,0
2017-12-17T05:22:51.370Z,0
2017-12-17T05:23:16.921Z,0
2017-12-17T05:23:42.383Z,0
2017-12-17T05:24:07.873Z,0
2017-12-17T05:24:33.387Z,0
2017-12-17T05:24:58.854Z,0
2017-12-17T05:25:24.326Z,0
2017-12-17T05:25:49.866Z,0
2017-12-17T05:26:15.353Z,0
2017-12-17T05:26:40.851Z,0
2017-12-17T05:27:06.349Z,0
2017-12-17T05:27:31.845Z,0
2017-12-17T05:27:57.313Z,0
2017-12-17T05:28:22.840Z,0
2017-12-17T05:28:48.315Z,0
2017-12-17T05:29:13.827Z,0
2017-12-17T05:29:39.300Z,0
2017-12-17T05:30:04.820Z,0
2017-12-17T05:30:30.325Z,0
2017-12-17T05:30:55.798Z,0
2017-12-17T05:31:21.357Z,0
2017-12-17T05:31:46.787Z,0
2017-12-17T05:33:15.924Z,0
2017-12-17T05:33:41.401Z,0
2017-12-17T05:34:06.895Z,0
2017-12-17T05:34:32.373Z,0
2017-12-17T05:34:57.869Z,0
2017-12-17T05:35:23.357Z,0
2017-12-17T05:35:48.870Z,0
2017-12-17T05:36:14.355Z,0
2017-12-17T05:37:28.138Z,0
2017-12-17T05:37:53.627Z,0
2017-12-17T05:38:19.115Z,0
2017-12-17T05:38:44.611Z,0
2017-12-17T05:39:10.106Z,0
2017-12-17T05:39:35.578Z,0
2017-12-17T05:40:01.055Z,0
2017-12-17T05:40:26.536Z,0
2017-12-17T05:40:52.034Z,0
2017-12-17T05:41:17.510Z,0
2017-12-17T05:41:43.009Z,0
2017-12-17T05:42:51.712Z,0
2017-12-17T05:43:17.194Z,0
2017-12-17T05:43:42.704Z,0
2017-12-17T05:44:08.199Z,0
2017-12-17T05:44:33.714Z,0
2017-12-17T05:44:59.200Z,0
2017-12-17T05:45:25.453Z,0
2017-12-17T05:45:50.936Z,0
2017-12-17T05:46:16.421Z,0
2017-12-17T05:46:41.928Z,0
2017-12-17T05:47:07.430Z,0
2017-12-17T05:47:32.922Z,0
2017-12-17T05:47:58.423Z,0
2017-12-17T05:48:23.922Z,0
2017-12-17T05:48:49.439Z,0
2017-12-17T05:49:14.930Z,0
2017-12-17T05:49:40.388Z,0
2017-12-17T05:50:05.887Z,0
2017-12-17T05:50:31.400Z,0
2017-12-17T05:50:56.891Z,0
2017-12-17T05:51:22.375Z,0
2017-12-17T05:51:47.886Z,0
2017-12-17T05:52:13.389Z,0
2017-12-17T05:52:38.907Z,0
2017-12-17T05:53:04.366Z,0
2017-12-17T05:53:29.841Z,0
2017-12-17T05:53:55.313Z,0
2017-12-17T05:54:20.801Z,0
2017-12-17T05:54:46.294Z,0
2017-12-17T05:55:11.768Z,0
2017-12-17T05:55:37.265Z,0
2017-12-17T05:56:02.788Z,0
2017-12-17T05:57:16.586Z,0
2017-12-17T05:57:42.083Z,0
2017-12-17T05:58:07.568Z,0
2017-12-17T05:58:33.089Z,0
2017-12-17T05:58:58.576Z,0
2017-12-17T05:59:24.087Z,0
2017-12-17T05:59:49.565Z,0
2017-12-17T06:01:13.642Z,0
2017-12-17T06:01:39.136Z,0
2017-12-17T06:02:04.622Z,0
2017-12-17T06:02:30.113Z,0
2017-12-17T06:02:55.623Z,0
2017-12-17T06:04:14.511Z,0
2017-12-17T06:04:39.999Z,0
2017-12-17T06:05:05.516Z,0
2017-12-17T06:05:31.010Z,0
2017-12-17T06:05:56.503Z,0
2017-12-17T06:06:21.983Z,0
2017-12-17T06:06:47.483Z,0
2017-12-17T06:07:12.976Z,0
2017-12-17T06:07:38.483Z,0
2017-12-17T06:08:03.979Z,0
2017-12-17T06:08:29.469Z,0
2017-12-17T06:08:55.003Z,0
2017-12-17T06:09:20.510Z,0
2017-12-17T06:09:45.989Z,0
2017-12-17T06:11:15.073Z,0
2017-12-17T06:11:40.559Z,0
2017-12-17T06:12:06.094Z,0
2017-12-17T06:12:31.522Z,0
2017-12-17T06:12:57.024Z,0
2017-12-17T06:14:15.934Z,0
2017-12-17T06:14:41.419Z,0
2017-12-17T06:15:06.902Z,0
2017-12-17T06:15:32.418Z,0
2017-12-17T06:15:57.889Z,0
2017-12-17T06:16:23.396Z,0
2017-12-17T06:16:48.900Z,0
2017-12-17T06:17:14.406Z,0
2017-12-17T06:17:39.912Z,0
2017-12-17T06:18:05.395Z,0
2017-12-17T06:18:30.866Z,0
2017-12-17T06:18:56.370Z,0
2017-12-17T06:19:21.834Z,0
2017-12-17T06:19:47.349Z,0
2017-12-17T06:20:12.836Z,0
2017-12-17T06:20:38.341Z,0
2017-12-17T06:21:03.890Z,0
2017-12-17T06:21:29.320Z,0
2017-12-17T06:21:54.822Z,0
2017-12-17T06:22:20.308Z,0
2017-12-17T06:23:39.254Z,0
2017-12-17T06:24:04.736Z,0
2017-12-17T06:24:30.222Z,0
2017-12-17T06:24:55.706Z,0
2017-12-17T06:25:21.192Z,0
2017-12-17T06:25:46.708Z,0
2017-12-17T06:26:12.217Z,0
2017-12-17T06:26:37.697Z,0
2017-12-17T06:27:03.158Z,0
2017-12-17T06:27:28.647Z,0
2017-12-17T06:27:54.096Z,0
2017-12-17T06:28:19.625Z,0
2017-12-17T06:28:45.127Z,0
2017-12-17T06:29:10.605Z,0
2017-12-17T06:29:36.118Z,0
2017-12-17T06:30:01.638Z,0
2017-12-17T06:30:27.173Z,0
2017-12-17T06:31:57.228Z,0
2017-12-17T06:32:22.732Z,0
2017-12-17T06:32:48.233Z,0
2017-12-17T06:33:13.716Z,0
2017-12-17T06:33:39.198Z,0
2017-12-17T06:34:04.680Z,0
2017-12-17T06:34:30.199Z,0
2017-12-17T06:34:55.715Z,0
2017-12-17T06:35:21.179Z,0
2017-12-17T06:35:46.679Z,0
2017-12-17T06:36:12.167Z,0
2017-12-17T06:36:37.679Z,0
2017-12-17T06:37:03.165Z,0
2017-12-17T06:37:28.658Z,0
2017-12-17T06:37:54.159Z,0
2017-12-17T06:38:19.646Z,0
2017-12-17T06:38:45.154Z,0
2017-12-17T06:39:10.678Z,0
2017-12-17T06:39:36.155Z,0
2017-12-17T06:40:01.644Z,0
2017-12-17T06:40:27.158Z,0
2017-12-17T06:40:52.620Z,0
2017-12-17T06:41:18.147Z,0
2017-12-17T06:41:43.625Z,0
2017-12-17T06:42:09.092Z,0
2017-12-17T06:42:34.576Z,0
2017-12-17T06:43:00.082Z,0
2017-12-17T06:43:25.648Z,0
2017-12-17T06:43:51.081Z,0
2017-12-17T06:44:16.572Z,0
2017-12-17T06:44:42.038Z,0
2017-12-17T06:45:07.512Z,0
2017-12-17T06:46:26.433Z,0
2017-12-17T06:46:51.944Z,0
2017-12-17T06:47:17.430Z,0
2017-12-17T06:47:42.919Z,0
2017-12-17T06:48:08.415Z,0
2017-12-17T06:48:33.955Z,0
2017-12-17T06:48:59.442Z,0
2017-12-17T06:49:24.956Z,0
2017-12-17T06:49:50.463Z,0
2017-12-17T06:50:15.952Z,0
2017-12-17T06:50:41.473Z,0
2017-12-17T06:51:06.971Z,0
2017-12-17T06:51:32.478Z,0
2017-12-17T06:51:57.971Z,0
2017-12-17T06:52:23.483Z,0
2017-12-17T06:52:48.985Z,0
2017-12-17T06:53:14.509Z,0
2017-12-17T06:53:39.998Z,0
2017-12-17T06:54:05.500Z,0
2017-12-17T06:54:30.959Z,0
2017-12-17T06:54:56.476Z,0
2017-12-17T06:55:21.983Z,0
2017-12-17T06:55:47.507Z,0
2017-12-17T06:56:12.992Z,0
2017-12-17T06:56:38.475Z,0
2017-12-17T06:57:03.987Z,0
2017-12-17T06:57:29.468Z,0
2017-12-17T06:57:55.044Z,0
2017-12-17T06:58:20.517Z,0
2017-12-17T06:58:46.016Z,0
2017-12-17T06:59:11.517Z,0
2017-12-17T06:59:37.021Z,0
2017-12-17T07:00:02.498Z,0
2017-12-17T07:00:27.998Z,0
2017-12-17T07:00:53.491Z,0
2017-12-17T07:01:18.963Z,0
2017-12-17T07:01:44.443Z,0
2017-12-17T07:02:09.945Z,0
2017-12-17T07:02:35.414Z,0
2017-12-17T07:03:00.920Z,0
2017-12-17T07:03:26.412Z,0
2017-12-17T07:03:51.891Z,0
2017-12-17T07:04:17.388Z,0
2017-12-17T07:05:46.486Z,0
2017-12-17T07:06:11.982Z,0
2017-12-17T07:06:37.449Z,0
2017-12-17T07:07:02.941Z,0
2017-12-17T07:07:28.426Z,0
2017-12-17T07:07:53.940Z,0
2017-12-17T07:08:19.436Z,0
2017-12-17T07:08:44.948Z,0
2017-12-17T07:09:10.470Z,0
2017-12-17T07:09:35.976Z,0
2017-12-17T07:10:01.437Z,0
2017-12-17T07:10:26.952Z,0
2017-12-17T07:10:52.477Z,0
2017-12-17T07:12:06.271Z,0
2017-12-17T07:12:31.764Z,0
2017-12-17T07:12:57.235Z,0
2017-12-17T07:13:22.702Z,0
2017-12-17T07:13:48.214Z,0
2017-12-17T07:14:13.703Z,0
2017-12-17T07:15:32.614Z,0
2017-12-17T07:15:58.172Z,0
2017-12-17T07:16:23.598Z,0
2017-12-17T07:17:32.314Z,0
2017-12-17T07:17:57.809Z,0
2017-12-17T07:18:23.312Z,0
2017-12-17T07:18:48.779Z,0
2017-12-17T07:19:14.255Z,0
2017-12-17T07:19:39.726Z,0
2017-12-17T07:20:05.247Z,0
2017-12-17T07:20:30.719Z,0
2017-12-17T07:20:56.188Z,0
2017-12-17T07:22:20.183Z,0
2017-12-17T07:22:45.684Z,0
2017-12-17T07:23:11.179Z,0
2017-12-17T07:23:36.690Z,0
2017-12-17T07:24:02.162Z,0
2017-12-17T07:24:27.649Z,0
2017-12-17T07:24:53.142Z,0
2017-12-17T07:25:18.641Z,0
2017-12-17T07:25:44.242Z,0
2017-12-17T07:26:09.690Z,0
2017-12-17T07:26:35.142Z,0
2017-12-17T07:27:00.681Z,0
2017-12-17T07:27:26.218Z,0
2017-12-17T07:27:51.720Z,0
2017-12-17T07:28:17.236Z,0
2017-12-17T07:28:42.731Z,0
2017-12-17T07:30:11.828Z,5
2017-12-17T07:30:37.320Z,5
2017-12-17T07:31:02.819Z,5
2017-12-17T07:31:28.352Z,5
2017-12-17T07:31:53.851Z,5
2017-12-17T07:32:19.404Z,5
2017-12-17T07:32:44.905Z,5
2017-12-17T07:33:10.415Z,5
2017-12-17T07:33:35.909Z,5
2017-12-17T07:34:01.381Z,5
2017-12-17T07:34:26.852Z,5
2017-12-17T07:34:52.400Z,5
2017-12-17T07:35:17.894Z,5
2017-12-17T07:35:43.490Z,5
2017-12-17T07:36:08.988Z,5
2017-12-17T07:36:34.498Z,5
2017-12-17T07:37:00.000Z,5
2017-12-17T07:37:25.621Z,5
2017-12-17T07:37:51.134Z,5
2017-12-17T07:38:59.847Z,5
2017-12-17T07:39:25.336Z,5
2017-12-17T07:39:50.831Z,5
2017-12-17T07:40:16.319Z,10
2017-12-17T07:40:41.818Z,10
2017-12-17T07:41:07.292Z,10
2017-12-17T07:41:32.782Z,10
2017-12-17T07:41:58.333Z,10
2017-12-17T07:42:23.868Z,10
2017-12-17T07:42:49.326Z,10
2017-12-17T07:43:14.834Z,10
2017-12-17T07:43:40.358Z,10
2017-12-17T07:44:05.942Z,10
2017-12-17T07:44:31.688Z,10
2017-12-17T07:44:57.197Z,10
2017-12-17T07:46:16.131Z,10
2017-12-17T07:46:41.629Z,10
2017-12-17T07:47:07.099Z,10
2017-12-17T07:47:32.584Z,10
2017-12-17T07:47:58.346Z,10
2017-12-17T07:48:23.822Z,10
2017-12-17T07:48:49.333Z,10
2017-12-17T07:49:14.862Z,15
2017-12-17T07:49:40.455Z,15
2017-12-17T07:50:05.973Z,15
2017-12-17T07:50:31.463Z,15
2017-12-17T07:50:56.960Z,15
2017-12-17T07:51:22.462Z,15
2017-12-17T07:51:47.963Z,15
2017-12-17T07:52:13.467Z,15
2017-12-17T07:52:39.027Z,15
2017-12-17T07:53:04.574Z,15
2017-12-17T07:53:30.023Z,15
2017-12-17T07:53:55.483Z,15
2017-12-17T07:54:20.974Z,15
2017-12-17T07:54:46.489Z,15
2017-12-17T07:55:11.960Z,15
2017-12-17T07:55:37.436Z,15
2017-12-17T07:56:02.927Z,15
2017-12-17T07:56:28.402Z,15
2017-12-17T07:56:53.910Z,15
2017-12-17T07:57:19.415Z,15
2017-12-17T07:57:44.912Z,20
2017-12-17T07:58:10.411Z,20
2017-12-17T07:58:35.935Z,20
2017-12-17T07:59:01.426Z,20
2017-12-17T08:00:21.353Z,20
2017-12-17T08:00:46.869Z,20
2017-12-17T08:01:12.357Z,20
2017-12-17T08:01:37.833Z,20
2017-12-17T08:02:03.346Z,20
2017-12-17T08:02:28.804Z,20
2017-12-17T08:02:54.292Z,20
2017-12-17T08:03:19.760Z,25
2017-12-17T08:03:45.224Z,25
2017-12-17T08:04:10.741Z,25
2017-12-17T08:04:36.209Z,25
2017-12-17T08:05:01.702Z,25
2017-12-17T08:05:27.229Z,25
2017-12-17T08:05:52.706Z,25
2017-12-17T08:06:18.203Z,30
2017-12-17T08:06:43.711Z,30
2017-12-17T08:07:09.218Z,30
2017-12-17T08:07:34.713Z,30
2017-12-17T08:08:00.238Z,35
2017-12-17T08:08:25.725Z,35
2017-12-17T08:08:51.236Z,35
2017-12-17T08:09:16.737Z,30
2017-12-17T08:09:42.278Z,30
2017-12-17T08:10:07.745Z,30
2017-12-17T08:10:33.266Z,30
2017-12-17T08:10:58.730Z,25
2017-12-17T08:11:24.242Z,25
2017-12-17T08:11:49.757Z,25
2017-12-17T08:12:15.276Z,25
2017-12-17T08:12:40.814Z,30
2017-12-17T08:13:06.328Z,30
2017-12-17T08:13:31.783Z,30
2017-12-17T08:13:57.286Z,30
2017-12-17T08:14:22.780Z,30
2017-12-17T08:14:48.296Z,30
2017-12-17T08:15:13.773Z,30
2017-12-17T08:15:39.271Z,30
2017-12-17T08:16:04.804Z,30
2017-12-17T08:16:30.361Z,30
2017-12-17T08:16:55.743Z,30
2017-12-17T08:18:14.703Z,30
2017-12-17T08:18:40.248Z,30
2017-12-17T08:19:05.745Z,30
2017-12-17T08:19:31.269Z,30
2017-12-17T08:19:56.786Z,30
2017-12-17T08:20:22.332Z,30
2017-12-17T08:20:47.808Z,30
2017-12-17T08:21:13.261Z,30
2017-12-17T08:21:38.779Z,35
2017-12-17T08:22:04.279Z,35
2017-12-17T08:22:29.799Z,35
2017-12-17T08:22:55.255Z,35
2017-12-17T08:23:20.775Z,35
2017-12-17T08:23:46.291Z,35
2017-12-17T08:24:11.790Z,35
2017-12-17T08:24:37.308Z,35
2017-12-17T08:25:02.811Z,35
2017-12-17T08:25:28.310Z,35
2017-12-17T08:25:53.848Z,35
2017-12-17T08:26:19.352Z,35
2017-12-17T08:27:43.367Z,35
2017-12-17T08:28:08.834Z,35
2017-12-17T08:28:34.347Z,35
2017-12-17T08:28:59.901Z,35
2017-12-17T08:29:25.422Z,35
2017-12-17T08:29:50.905Z,35
2017-12-17T08:30:16.380Z,40
2017-12-17T08:30:41.868Z,40
2017-12-17T08:31:07.403Z,40
2017-12-17T08:31:32.901Z,40
2017-12-17T08:31:58.461Z,45
2017-12-17T08:33:12.329Z,50
2017-12-17T08:33:37.803Z,50
2017-12-17T08:34:03.325Z,55
2017-12-17T08:34:28.892Z,55
2017-12-17T08:34:54.353Z,55
2017-12-17T08:35:19.840Z,55
2017-12-17T08:35:45.323Z,55
2017-12-17T08:36:10.817Z,50
2017-12-17T08:36:36.324Z,50
2017-12-17T08:37:01.813Z,45
2017-12-17T08:37:27.341Z,45
2017-12-17T08:37:52.792Z,40
2017-12-17T08:38:18.331Z,40
2017-12-17T08:38:43.799Z,40
2017-12-17T08:39:09.252Z,40
2017-12-17T08:39:34.758Z,35
2017-12-17T08:40:00.231Z,35
2017-12-17T08:40:25.681Z,35
2017-12-17T08:40:51.201Z,35
2017-12-17T08:41:16.704Z,35
2017-12-17T08:41:42.179Z,35
2017-12-17T08:42:07.664Z,35
2017-12-17T08:42:33.198Z,35
2017-12-17T08:42:58.761Z,35
2017-12-17T08:43:24.299Z,40
2017-12-17T08:43:49.773Z,40
2017-12-17T08:44:15.250Z,40
2017-12-17T08:44:40.764Z,45
2017-12-17T08:45:06.231Z,45
2017-12-17T08:45:31.720Z,45
2017-12-17T08:45:57.228Z,45
2017-12-17T08:47:16.168Z,50
2017-12-17T08:47:41.675Z,50
2017-12-17T08:48:07.160Z,55
2017-12-17T08:48:32.624Z,55
2017-12-17T08:48:58.098Z,55
2017-12-17T08:49:23.600Z,55
2017-12-17T08:49:49.136Z,55
2017-12-17T08:50:14.620Z,55
2017-12-17T08:51:44.708Z,55
2017-12-17T08:52:10.263Z,50
2017-12-17T08:52:35.744Z,50
2017-12-17T08:53:44.451Z,50
2017-12-17T08:54:09.957Z,50
2017-12-17T08:54:35.396Z,50
2017-12-17T08:55:00.866Z,50
2017-12-17T08:55:26.375Z,50
2017-12-17T08:55:51.799Z,50
2017-12-17T08:56:17.253Z,50
2017-12-17T08:56:42.808Z,55
2017-12-17T08:57:08.289Z,55
2017-12-17T08:57:33.754Z,55
2017-12-17T08:57:59.237Z,55
2017-12-17T08:58:24.704Z,60
2017-12-17T08:58:50.210Z,65
2017-12-17T09:00:14.209Z,65
2017-12-17T09:00:39.707Z,65
2017-12-17T09:01:05.214Z,70
2017-12-17T09:01:30.667Z,60
2017-12-17T09:01:56.156Z,55
2017-12-17T09:02:21.942Z,55
2017-12-17T09:02:47.488Z,55
2017-12-17T09:03:12.980Z,55
2017-12-17T09:03:38.509Z,50
2017-12-17T09:04:04.051Z,50
2017-12-17T09:04:29.536Z,50
2017-12-17T09:04:55.085Z,50
2017-12-17T09:05:20.588Z,50
2017-12-17T09:05:46.167Z,45
2017-12-17T09:06:11.696Z,50
2017-12-17T09:06:37.167Z,55
2017-12-17T09:08:06.292Z,55
2017-12-17T09:08:31.797Z,60
2017-12-17T09:08:57.282Z,50
2017-12-17T09:09:22.812Z,50
2017-12-17T09:09:48.316Z,50
2017-12-17T09:10:13.824Z,50
2017-12-17T09:10:39.277Z,50
2017-12-17T09:12:07.856Z,50
2017-12-17T09:12:33.326Z,55
2017-12-17T09:12:58.801Z,55
2017-12-17T09:13:24.286Z,60
2017-12-17T09:13:49.786Z,65
2017-12-17T09:14:15.310Z,60
2017-12-17T09:14:40.797Z,60
2017-12-17T09:15:06.274Z,65
2017-12-17T09:15:31.810Z,65
2017-12-17T09:15:57.314Z,70
2017-12-17T09:16:22.833Z,70
2017-12-17T09:16:48.318Z,70
2017-12-17T09:17:13.812Z,75
2017-12-17T09:17:39.316Z,75
2017-12-17T09:18:04.840Z,75
2017-12-17T09:18:30.352Z,80
2017-12-17T09:18:55.861Z,90
2017-12-17T09:20:24.987Z,75
2017-12-17T09:20:50.481Z,75
2017-12-17T09:21:15.993Z,75
2017-12-17T09:21:41.506Z,80
2017-12-17T09:22:06.981Z,70
2017-12-17T09:22:32.485Z,65
2017-12-17T09:22:57.965Z,65
2017-12-17T09:23:23.475Z,65
2017-12-17T09:23:48.963Z,65
2017-12-17T09:24:14.478Z,60
2017-12-17T09:24:39.968Z,65
2017-12-17T09:25:05.524Z,65
2017-12-17T09:25:31.030Z,65
2017-12-17T09:26:49.925Z,60
2017-12-17T09:27:15.432Z,60
2017-12-17T09:27:40.909Z,60
2017-12-17T09:28:06.400Z,60
2017-12-17T09:28:31.877Z,60
2017-12-17T09:28:57.384Z,60
2017-12-17T09:29:22.874Z,60
2017-12-17T09:29:48.384Z,65
2017-12-17T09:30:13.901Z,65
2017-12-17T09:30:39.396Z,65
2017-12-17T09:31:04.904Z,65
2017-12-17T09:31:30.398Z,70
2017-12-17T09:31:55.924Z,70
2017-12-17T09:32:21.409Z,75
2017-12-17T09:32:46.883Z,75
2017-12-17T09:33:12.363Z,75
2017-12-17T09:33:37.894Z,75
2017-12-17T09:34:03.383Z,75
2017-12-17T09:34:28.858Z,75
2017-12-17T09:34:54.331Z,75
2017-12-17T09:35:19.841Z,75
2017-12-17T09:35:45.330Z,75
2017-12-17T09:36:10.829Z,80
2017-12-17T09:37:39.963Z,80
2017-12-17T09:38:05.454Z,80
2017-12-17T09:38:30.941Z,85
2017-12-17T09:38:56.431Z,85
2017-12-17T09:39:21.926Z,80
2017-12-17T09:39:47.479Z,80
2017-12-17T09:40:12.884Z,80
2017-12-17T09:40:38.388Z,75
2017-12-17T09:41:03.890Z,80
2017-12-17T09:41:29.355Z,80
2017-12-17T09:41:54.818Z,80
2017-12-17T09:42:20.345Z,80
2017-12-17T09:42:45.849Z,85
2017-12-17T09:43:11.341Z,85
2017-12-17T09:43:36.829Z,80
2017-12-17T09:44:02.310Z,80
2017-12-17T09:44:27.836Z,80
2017-12-17T09:44:53.326Z,85
2017-12-17T09:45:18.818Z,85
2017-12-17T09:45:44.374Z,85
2017-12-17T09:46:09.820Z,90
2017-12-17T09:46:35.307Z,90
2017-12-17T09:47:00.776Z,85
2017-12-17T09:47:26.250Z,80
2017-12-17T09:47:51.765Z,80
2017-12-17T09:48:17.290Z,75
2017-12-17T09:48:42.785Z,70
2017-12-17T09:49:08.345Z,70
2017-12-17T09:49:33.775Z,70
2017-12-17T09:49:59.257Z,70
2017-12-17T09:50:24.748Z,70
2017-12-17T09:50:50.251Z,75
2017-12-17T09:51:15.746Z,75
2017-12-17T09:51:41.269Z,80
2017-12-17T09:52:06.768Z,85
2017-12-17T09:52:32.318Z,95
2017-12-17T09:52:57.824Z,90
2017-12-17T09:53:23.343Z,85
2017-12-17T09:53:48.840Z,85
2017-12-17T09:54:14.333Z,80
2017-12-17T09:54:39.837Z,80
2017-12-17T09:55:05.325Z,80
2017-12-17T09:55:30.781Z,80
2017-12-17T09:55:56.303Z,80
2017-12-17T09:56:21.800Z,85
2017-12-17T09:56:47.294Z,85
2017-12-17T09:57:12.758Z,85
2017-12-17T09:57:38.240Z,80
2017-12-17T09:58:03.735Z,75
2017-12-17T09:58:29.247Z,75
2017-12-17T09:58:54.709Z,75
2017-12-17T09:59:20.213Z,70
2017-12-17T09:59:45.694Z,75
2017-12-17T10:00:11.205Z,70
2017-12-17T10:00:36.690Z,70
2017-12-17T10:01:50.478Z,75
2017-12-17T10:02:15.967Z,80
2017-12-17T10:02:41.464Z,90
2017-12-17T10:03:06.958Z,95
2017-12-17T10:03:32.446Z,100
2017-12-17T10:03:57.944Z,100
2017-12-17T10:04:23.440Z,110
2017-12-17T10:04:48.931Z,110
2017-12-17T10:05:14.410Z,110
2017-12-17T10:05:39.911Z,120
2017-12-17T10:06:05.405Z,110
2017-12-17T10:06:30.899Z,100
2017-12-17T10:06:56.405Z,105
2017-12-17T10:07:21.902Z,120
2017-12-17T10:07:47.403Z,115
2017-12-17T10:08:12.875Z,105
2017-12-17T10:08:38.368Z,100
2017-12-17T10:09:03.842Z,100
2017-12-17T10:09:29.357Z,100
2017-12-17T10:09:54.843Z,95
2017-12-17T10:10:20.321Z,90
2017-12-17T10:10:45.834Z,105
2017-12-17T10:11:11.276Z,100
2017-12-17T10:11:36.807Z,120
2017-12-17T10:12:02.308Z,115
2017-12-17T10:12:27.818Z,120
2017-12-17T10:12:53.372Z,120
2017-12-17T10:13:18.851Z,105
2017-12-17T10:13:44.364Z,100
2017-12-17T10:14:09.862Z,110
2017-12-17T10:14:35.359Z,105
2017-12-17T10:15:00.821Z,120
2017-12-17T10:15:26.323Z,115
2017-12-17T10:15:51.862Z,95
2017-12-17T10:16:17.369Z,95
2017-12-17T10:16:42.912Z,90
2017-12-17T10:17:08.382Z,90
2017-12-17T10:18:22.237Z,90
2017-12-17T10:18:47.695Z,85
2017-12-17T10:19:13.170Z,100
2017-12-17T10:19:38.689Z,110
2017-12-17T10:20:04.166Z,105
2017-12-17T10:20:29.665Z,95
2017-12-17T10:20:55.130Z,95
2017-12-17T10:21:20.628Z,95
2017-12-17T10:21:46.146Z,105
2017-12-17T10:22:11.644Z,105
2017-12-17T10:22:37.166Z,110
2017-12-17T10:23:02.649Z,110
2017-12-17T10:23:28.130Z,110
2017-12-17T10:23:53.647Z,100
2017-12-17T10:24:19.098Z,100
2017-12-17T10:24:44.608Z,100
2017-12-17T10:25:10.100Z,95
2017-12-17T10:25:35.573Z,95
2017-12-17T10:26:01.063Z,105
2017-12-17T10:26:26.528Z,100
2017-12-17T10:26:52.026Z,100
2017-12-17T10:27:17.502Z,110
2017-12-17T10:27:43.003Z,115
2017-12-17T10:28:08.470Z,120
2017-12-17T10:28:33.958Z,125
2017-12-17T10:28:59.523Z,125
2017-12-17T10:29:25.028Z,135
2017-12-17T10:29:50.561Z,130
2017-12-17T10:30:16.045Z,125
2017-12-17T10:30:41.502Z,125
2017-12-17T10:31:06.997Z,105
2017-12-17T10:31:32.525Z,105
2017-12-17T10:31:58.034Z,95
2017-12-17T10:32:23.503Z,100
2017-12-17T10:32:49.008Z,120
2017-12-17T10:33:14.490Z,95
2017-12-17T10:33:40.018Z,95
2017-12-17T10:34:05.506Z,100
2017-12-17T10:34:31.017Z,105
2017-12-17T10:34:56.517Z,100
2017-12-17T10:35:22.004Z,105
2017-12-17T10:35:47.486Z,95
2017-12-17T10:36:12.983Z,105
2017-12-17T10:36:38.480Z,90
2017-12-17T10:37:03.980Z,95
2017-12-17T10:37:29.508Z,90
2017-12-17T10:37:54.970Z,100
2017-12-17T10:38:20.464Z,105
2017-12-17T10:38:45.983Z,105
2017-12-17T10:39:11.405Z,110
2017-12-17T10:39:36.910Z,100
2017-12-17T10:40:02.414Z,85
2017-12-17T10:40:27.883Z,90
2017-12-17T10:40:53.365Z,100
2017-12-17T10:41:18.871Z,95
2017-12-17T10:41:44.366Z,85
2017-12-17T10:42:09.872Z,95
2017-12-17T10:42:35.354Z,95
2017-12-17T10:43:00.832Z,115
2017-12-17T10:43:26.320Z,115
2017-12-17T10:43:51.767Z,105
2017-12-17T10:44:17.268Z,100
2017-12-17T10:44:42.764Z,100
2017-12-17T10:45:08.240Z,115
2017-12-17T10:45:33.734Z,110
2017-12-17T10:45:59.264Z,105
2017-12-17T10:46:24.794Z,120
2017-12-17T10:46:50.230Z,115
2017-12-17T10:47:15.776Z,125
2017-12-17T10:47:41.227Z,125
2017-12-17T10:48:06.723Z,110
2017-12-17T10:48:32.223Z,120
2017-12-17T10:48:57.720Z,125
2017-12-17T10:49:23.206Z,130
2017-12-17T10:49:48.725Z,125
2017-12-17T10:50:14.223Z,130
2017-12-17T10:50:39.702Z,125
2017-12-17T10:51:05.237Z,120
2017-12-17T10:51:30.748Z,110
2017-12-17T10:51:56.232Z,115
2017-12-17T10:52:21.713Z,120
2017-12-17T10:52:47.381Z,110
2017-12-17T10:53:12.766Z,100
2017-12-17T10:53:38.282Z,115
2017-12-17T10:54:03.762Z,105
2017-12-17T10:54:29.275Z,100
2017-12-17T10:54:54.739Z,105
2017-12-17T10:55:20.245Z,100
2017-12-17T10:55:45.729Z,105
2017-12-17T10:56:11.258Z,95
2017-12-17T10:56:36.753Z,95
2017-12-17T10:57:02.248Z,100
2017-12-17T10:57:27.761Z,105
2017-12-17T10:57:53.260Z,95
2017-12-17T10:58:18.755Z,110
2017-12-17T10:58:44.249Z,110
2017-12-17T10:59:09.715Z,110
2017-12-17T10:59:35.262Z,90
2017-12-17T11:00:00.766Z,100
2017-12-17T11:00:26.253Z,95
2017-12-17T11:00:51.757Z,95
2017-12-17T11:01:17.237Z,105
2017-12-17T11:01:42.706Z,95
2017-12-17T11:02:08.204Z,105
2017-12-17T11:02:33.730Z,110
2017-12-17T11:04:02.839Z,110
2017-12-17T11:04:28.351Z,110
2017-12-17T11:04:53.835Z,105
2017-12-17T11:05:19.384Z,105
2017-12-17T11:05:44.879Z,95
2017-12-17T11:06:10.453Z,100
2017-12-17T11:06:35.922Z,105
2017-12-17T11:07:01.423Z,110
2017-12-17T11:07:26.923Z,120
2017-12-17T11:07:52.427Z,120
2017-12-17T11:08:17.918Z,115
2017-12-17T11:08:43.434Z,115
2017-12-17T11:09:08.945Z,115
2017-12-17T11:09:34.441Z,115
2017-12-17T11:09:59.929Z,125
2017-12-17T11:10:25.415Z,125
2017-12-17T11:10:50.900Z,115
2017-12-17T11:11:16.402Z,130
2017-12-17T11:11:41.890Z,125
2017-12-17T11:12:50.630Z,105
2017-12-17T11:13:16.145Z,125
2017-12-17T11:13:41.647Z,125
2017-12-17T11:14:07.136Z,115
2017-12-17T11:14:32.607Z,115
2017-12-17T11:14:58.091Z,115
2017-12-17T11:15:23.595Z,115
2017-12-17T11:15:49.107Z,115
2017-12-17T11:16:14.611Z,105
2017-12-17T11:16:40.077Z,100
2017-12-17T11:17:05.562Z,90
2017-12-17T11:17:31.055Z,95
2017-12-17T11:17:56.568Z,90
2017-12-17T11:18:21.995Z,95
2017-12-17T11:18:47.491Z,100
2017-12-17T11:19:12.994Z,95
2017-12-17T11:20:32.947Z,105
2017-12-17T11:20:58.438Z,105
2017-12-17T11:21:23.928Z,110
2017-12-17T11:21:49.423Z,125
2017-12-17T11:22:14.917Z,120
2017-12-17T11:22:40.393Z,120
2017-12-17T11:23:05.918Z,135
2017-12-17T11:23:31.416Z,135
2017-12-17T11:23:56.901Z,130
2017-12-17T11:24:22.427Z,135
2017-12-17T11:24:47.916Z,160
2017-12-17T11:25:13.391Z,155
2017-12-17T11:25:38.900Z,145
2017-12-17T11:26:04.383Z,135
2017-12-17T11:26:29.896Z,135
2017-12-17T11:26:55.376Z,135
2017-12-17T11:27:20.830Z,135
2017-12-17T11:27:46.309Z,120
2017-12-17T11:28:11.776Z,130
2017-12-17T11:28:37.252Z,130
2017-12-17T11:29:02.778Z,135
2017-12-17T11:29:28.248Z,140
2017-12-17T11:29:53.751Z,135
2017-12-17T11:30:19.216Z,135
2017-12-17T11:30:44.706Z,135
2017-12-17T11:31:10.189Z,145
2017-12-17T11:32:19.107Z,150
2017-12-17T11:32:44.595Z,155
2017-12-17T11:33:10.098Z,145
2017-12-17T11:33:35.607Z,165
2017-12-17T11:34:01.122Z,170
2017-12-17T11:34:26.622Z,175
2017-12-17T11:34:52.117Z,175
2017-12-17T11:35:17.614Z,175
2017-12-17T11:35:43.128Z,185
2017-12-17T11:37:13.192Z,160
2017-12-17T11:37:38.678Z,165
2017-12-17T11:38:04.171Z,155
2017-12-17T11:38:29.669Z,155
2017-12-17T11:38:55.146Z,145
2017-12-17T11:39:20.633Z,140
2017-12-17T11:39:46.079Z,130
2017-12-17T11:40:11.558Z,135
2017-12-17T11:40:37.007Z,130
2017-12-17T11:41:02.525Z,130
2017-12-17T11:41:28.024Z,145
2017-12-17T11:41:53.507Z,145
2017-12-17T11:42:18.978Z,130
2017-12-17T11:42:44.494Z,130
2017-12-17T11:43:09.991Z,125
2017-12-17T11:43:35.452Z,115
2017-12-17T11:44:00.938Z,110
2017-12-17T11:44:26.394Z,125
2017-12-17T11:44:51.895Z,120
2017-12-17T11:45:17.352Z,120